createdAt,value
2017-10-03T00:00:28.870Z,0.00
2017-10-03T00:01:28.855Z,0.00
2017-10-03T00:02:28.842Z,0.00
2017-10-03T00:03:28.829Z,0.00
2017-10-03T00:04:28.816Z,0.00
2017-10-03T00:05:28.801Z,0.00
2017-10-03T00:06:28.786Z,0.00
2017-10-03T00:07:28.772Z,0.00
2017-10-03T00:08:28.759Z,0.00
2017-10-03T00:09:28.745Z,0.00
2017-10-03T00:10:28.731Z,0.00
2017-10-03T00:11:28.718Z,0.00
2017-10-03T00:12:28.704Z,0.00
2017-10-03T00:13:28.690Z,0.00
2017-10-03T00:14:28.675Z,0.00
2017-10-03T00:15:28.662Z,0.00
2017-10-03T00:16:28.649Z,0.00
2017-10-03T00:17:28.635Z,0.00
2017-10-03T00:18:28.621Z,0.00
2017-10-03T00:19:28.608Z,0.00
2017-10-03T00:20:28.593Z,0.00
2017-10-03T00:21:28.581Z,0.00
2017-10-03T00:22:28.566Z,0.00
2017-10-03T00:23:28.552Z,0.00
2017-10-03T00:24:28.538Z,0.00
2017-10-03T00:25:28.525Z,0.00
2017-10-03T00:26:28.515Z,0.00
2017-10-03T00:27:28.499Z,0.00
2017-10-03T00:28:28.484Z,0.00
2017-10-03T00:29:28.469Z,0.00
2017-10-03T00:30:28.456Z,0.00
2017-10-03T00:31:28.442Z,0.00
2017-10-03T00:32:28.430Z,0.00
2017-10-03T00:33:28.420Z,0.00
2017-10-03T00:34:28.400Z,0.00
2017-10-03T00:35:28.387Z,0.00
2017-10-03T00:36:28.374Z,0.00
2017-10-03T00:37:28.361Z,0.00
2017-10-03T00:38:28.350Z,0.00
2017-10-03T00:39:28.333Z,0.00
2017-10-03T00:40:28.319Z,0.00
2017-10-03T00:41:28.307Z,0.00
2017-10-03T00:42:28.292Z,0.00
2017-10-03T00:43:28.280Z,0.00
2017-10-03T00:44:28.265Z,0.00
2017-10-03T00:45:28.251Z,0.00
2017-10-03T00:46:28.237Z,0.00
2017-10-03T00:47:28.224Z,0.00
2017-10-03T00:48:28.210Z,0.00
2017-10-03T00:49:28.201Z,0.00
2017-10-03T00:50:28.182Z,0.00
2017-10-03T00:51:28.169Z,0.00
2017-10-03T00:52:28.156Z,0.00
2017-10-03T00:53:28.144Z,0.00
2017-10-03T00:54:28.130Z,0.00
2017-10-03T00:55:28.115Z,0.00
2017-10-03T00:56:28.102Z,0.00
2017-10-03T00:57:28.089Z,0.00
2017-10-03T00:58:28.074Z,0.00
2017-10-03T00:59:28.062Z,0.00
2017-10-03T01:00:28.049Z,0.00
2017-10-03T01:01:28.034Z,0.00
2017-10-03T01:02:28.020Z,0.00
2017-10-03T01:03:28.006Z,0.00
2017-10-03T01:04:27.993Z,0.00
2017-10-03T01:05:27.979Z,0.00
2017-10-03T01:06:27.965Z,0.00
2017-10-03T01:07:27.951Z,0.00
2017-10-03T01:08:27.939Z,0.00
2017-10-03T01:09:27.926Z,0.00
2017-10-03T01:10:27.910Z,0.00
2017-10-03T01:11:27.897Z,0.00
2017-10-03T01:12:27.883Z,0.00
2017-10-03T01:13:27.870Z,0.00
2017-10-03T01:14:27.856Z,0.00
2017-10-03T01:15:27.843Z,0.00
2017-10-03T01:16:27.829Z,0.00
2017-10-03T01:17:27.816Z,0.00
2017-10-03T01:18:27.804Z,0.00
2017-10-03T01:19:27.790Z,0.00
2017-10-03T01:20:27.776Z,0.00
2017-10-03T01:21:27.762Z,0.00
2017-10-03T01:22:27.749Z,0.00
2017-10-03T01:23:27.742Z,0.00
2017-10-03T01:24:27.722Z,0.00
2017-10-03T01:25:27.709Z,0.00
2017-10-03T01:26:27.695Z,0.00
2017-10-03T01:27:27.681Z,0.00
2017-10-03T01:28:27.669Z,0.00
2017-10-03T01:29:27.655Z,0.00
2017-10-03T01:30:27.642Z,0.00
2017-10-03T01:31:27.628Z,0.00
2017-10-03T01:32:27.614Z,0.00
2017-10-03T01:33:27.601Z,0.00
2017-10-03T01:34:27.586Z,0.00
2017-10-03T01:35:27.593Z,0.00
2017-10-03T01:36:27.563Z,0.00
2017-10-03T01:37:27.547Z,0.00
2017-10-03T01:38:27.534Z,0.00
2017-10-03T01:39:27.520Z,0.00
2017-10-03T01:40:27.507Z,0.00
2017-10-03T01:41:27.494Z,0.00
2017-10-03T01:42:27.480Z,0.00
2017-10-03T01:43:27.467Z,0.00
2017-10-03T01:44:27.453Z,0.00
2017-10-03T01:45:27.440Z,0.00
2017-10-03T01:46:27.427Z,0.00
2017-10-03T01:47:27.413Z,0.00
2017-10-03T01:48:27.400Z,0.00
2017-10-03T01:49:27.387Z,0.00
2017-10-03T01:50:27.373Z,0.00
2017-10-03T01:51:27.361Z,0.00
2017-10-03T01:52:27.347Z,0.00
2017-10-03T01:53:27.334Z,0.00
2017-10-03T01:54:27.321Z,0.00
2017-10-03T01:55:27.307Z,0.00
2017-10-03T01:56:27.294Z,0.00
2017-10-03T01:57:27.280Z,0.00
2017-10-03T01:58:27.265Z,0.00
2017-10-03T01:59:27.257Z,0.00
2017-10-03T02:00:27.240Z,0.00
2017-10-03T02:01:27.226Z,0.00
2017-10-03T02:02:27.211Z,0.00
2017-10-03T02:03:27.199Z,0.00
2017-10-03T02:04:27.186Z,0.00
2017-10-03T02:05:27.173Z,0.00
2017-10-03T02:06:27.159Z,0.00
2017-10-03T02:07:27.145Z,0.00
2017-10-03T02:08:27.132Z,0.00
2017-10-03T02:09:27.118Z,0.00
2017-10-03T02:10:27.104Z,0.00
2017-10-03T02:11:27.104Z,0.00
2017-10-03T02:12:27.077Z,0.00
2017-10-03T02:13:27.064Z,0.00
2017-10-03T02:14:27.052Z,0.00
2017-10-03T02:15:27.036Z,0.00
2017-10-03T02:16:27.025Z,0.00
2017-10-03T02:17:27.011Z,0.00
2017-10-03T02:18:26.997Z,0.00
2017-10-03T02:19:26.985Z,0.00
2017-10-03T02:20:26.971Z,0.00
2017-10-03T02:21:26.964Z,0.00
2017-10-03T02:22:26.943Z,0.00
2017-10-03T02:23:26.933Z,0.00
2017-10-03T02:24:26.917Z,0.00
2017-10-03T02:25:26.905Z,0.00
2017-10-03T02:26:26.890Z,0.00
2017-10-03T02:27:26.877Z,0.00
2017-10-03T02:28:26.864Z,0.00
2017-10-03T02:29:26.869Z,0.00
2017-10-03T02:30:26.838Z,0.00
2017-10-03T02:31:26.825Z,0.00
2017-10-03T02:32:26.811Z,0.00
2017-10-03T02:33:26.797Z,0.00
2017-10-03T02:34:26.784Z,0.00
2017-10-03T02:35:26.771Z,0.00
2017-10-03T02:36:26.758Z,0.00
2017-10-03T02:37:26.745Z,0.00
2017-10-03T02:38:26.730Z,0.00
2017-10-03T02:39:26.718Z,0.00
2017-10-03T02:40:26.705Z,0.00
2017-10-03T02:41:26.691Z,0.00
2017-10-03T02:42:26.677Z,0.00
2017-10-03T02:43:26.664Z,0.00
2017-10-03T02:44:26.652Z,0.00
2017-10-03T02:45:26.639Z,0.00
2017-10-03T02:46:26.628Z,0.00
2017-10-03T02:47:26.610Z,0.00
2017-10-03T02:48:26.596Z,0.00
2017-10-03T02:49:26.583Z,0.00
2017-10-03T02:50:26.569Z,0.00
2017-10-03T02:51:26.557Z,0.00
2017-10-03T02:52:26.542Z,0.00
2017-10-03T02:53:26.528Z,0.00
2017-10-03T02:54:26.515Z,0.00
2017-10-03T02:55:26.504Z,0.00
2017-10-03T02:56:26.487Z,0.00
2017-10-03T02:57:26.474Z,0.00
2017-10-03T02:58:26.459Z,0.00
2017-10-03T02:59:26.446Z,0.00
2017-10-03T03:00:26.432Z,0.00
2017-10-03T03:01:26.420Z,0.00
2017-10-03T03:02:26.405Z,0.00
2017-10-03T03:03:26.392Z,0.00
2017-10-03T03:04:26.378Z,0.00
2017-10-03T03:05:26.364Z,0.00
2017-10-03T03:06:26.352Z,0.00
2017-10-03T03:07:26.337Z,0.00
2017-10-03T03:08:26.326Z,0.00
2017-10-03T03:09:26.310Z,0.00
2017-10-03T03:10:26.296Z,0.00
2017-10-03T03:11:26.282Z,0.00
2017-10-03T03:12:26.269Z,0.00
2017-10-03T03:13:26.255Z,0.00
2017-10-03T03:14:26.240Z,0.00
2017-10-03T03:15:26.227Z,0.00
2017-10-03T03:16:26.213Z,0.00
2017-10-03T03:17:26.200Z,0.00
2017-10-03T03:18:26.186Z,0.00
2017-10-03T03:19:26.172Z,0.00
2017-10-03T03:20:26.159Z,0.00
2017-10-03T03:21:26.147Z,0.00
2017-10-03T03:22:26.131Z,0.00
2017-10-03T03:23:26.119Z,0.00
2017-10-03T03:24:26.107Z,0.00
2017-10-03T03:25:26.090Z,0.00
2017-10-03T03:26:26.076Z,0.00
2017-10-03T03:27:26.063Z,0.00
2017-10-03T03:28:26.049Z,0.00
2017-10-03T03:29:26.036Z,0.00
2017-10-03T03:30:26.023Z,0.00
2017-10-03T03:31:26.009Z,0.00
2017-10-03T03:32:25.994Z,0.00
2017-10-03T03:33:25.980Z,0.00
2017-10-03T03:34:25.966Z,0.00
2017-10-03T03:35:25.952Z,0.00
2017-10-03T03:36:25.942Z,0.00
2017-10-03T03:37:25.925Z,0.00
2017-10-03T03:38:25.910Z,0.00
2017-10-03T03:39:25.897Z,0.00
2017-10-03T03:40:25.883Z,0.00
2017-10-03T03:41:25.870Z,0.00
2017-10-03T03:42:25.856Z,0.00
2017-10-03T03:43:25.842Z,0.00
2017-10-03T03:44:25.828Z,0.00
2017-10-03T03:45:25.815Z,0.00
2017-10-03T03:46:25.801Z,0.00
2017-10-03T03:47:25.787Z,0.00
2017-10-03T03:48:25.773Z,0.00
2017-10-03T03:49:25.760Z,0.00
2017-10-03T03:50:25.745Z,0.00
2017-10-03T03:51:25.732Z,0.00
2017-10-03T03:52:25.718Z,0.00
2017-10-03T03:53:25.704Z,0.00
2017-10-03T03:54:25.690Z,0.00
2017-10-03T03:55:25.675Z,0.00
2017-10-03T03:56:25.663Z,0.00
2017-10-03T03:57:25.648Z,0.00
2017-10-03T03:58:25.633Z,0.00
2017-10-03T03:59:25.619Z,0.00
2017-10-03T04:00:25.605Z,0.00
2017-10-03T04:01:25.594Z,0.00
2017-10-03T04:02:25.577Z,0.00
2017-10-03T04:03:25.564Z,0.00
2017-10-03T04:04:25.549Z,0.00
2017-10-03T04:05:25.536Z,0.00
2017-10-03T04:06:25.521Z,0.00
2017-10-03T04:07:25.508Z,0.00
2017-10-03T04:08:25.494Z,0.00
2017-10-03T04:09:25.479Z,0.00
2017-10-03T04:10:25.465Z,0.00
2017-10-03T04:11:25.450Z,0.00
2017-10-03T04:12:25.437Z,0.00
2017-10-03T04:13:25.424Z,0.00
2017-10-03T04:14:25.408Z,0.00
2017-10-03T04:15:25.395Z,0.00
2017-10-03T04:16:25.381Z,0.00
2017-10-03T04:17:25.367Z,0.00
2017-10-03T04:18:25.357Z,0.00
2017-10-03T04:19:25.340Z,0.00
2017-10-03T04:20:25.327Z,0.00
2017-10-03T04:21:25.313Z,0.00
2017-10-03T04:22:25.299Z,0.00
2017-10-03T04:23:25.285Z,0.00
2017-10-03T04:24:25.275Z,0.00
2017-10-03T04:25:25.258Z,0.00
2017-10-03T04:26:25.244Z,0.00
2017-10-03T04:27:25.232Z,0.00
2017-10-03T04:28:25.218Z,0.00
2017-10-03T04:29:25.204Z,0.00
2017-10-03T04:30:25.189Z,0.00
2017-10-03T04:31:25.175Z,0.00
2017-10-03T04:32:25.162Z,0.00
2017-10-03T04:33:25.149Z,0.00
2017-10-03T04:34:25.134Z,0.00
2017-10-03T04:35:25.120Z,0.00
2017-10-03T04:36:25.107Z,0.00
2017-10-03T04:37:25.093Z,0.00
2017-10-03T04:38:25.080Z,0.00
2017-10-03T04:39:25.067Z,0.00
2017-10-03T04:40:25.052Z,0.00
2017-10-03T04:41:25.040Z,0.00
2017-10-03T04:42:25.025Z,0.00
2017-10-03T04:43:25.011Z,0.00
2017-10-03T04:44:25.002Z,0.00
2017-10-03T04:45:24.985Z,0.00
2017-10-03T04:46:24.970Z,0.00
2017-10-03T04:47:24.956Z,0.00
2017-10-03T04:48:24.943Z,0.00
2017-10-03T04:49:24.930Z,0.00
2017-10-03T04:50:24.916Z,0.00
2017-10-03T04:51:24.901Z,0.00
2017-10-03T04:52:24.889Z,0.00
2017-10-03T04:53:24.875Z,0.00
2017-10-03T04:54:24.860Z,0.00
2017-10-03T04:55:24.846Z,0.00
2017-10-03T04:56:24.834Z,0.00
2017-10-03T04:57:24.820Z,0.00
2017-10-03T04:58:24.805Z,0.00
2017-10-03T04:59:24.792Z,0.00
2017-10-03T05:00:24.779Z,0.00
2017-10-03T05:01:24.765Z,0.00
2017-10-03T05:02:24.750Z,0.00
2017-10-03T05:03:24.736Z,0.00
2017-10-03T05:04:24.723Z,0.00
2017-10-03T05:05:24.709Z,0.00
2017-10-03T05:06:24.693Z,0.00
2017-10-03T05:07:24.681Z,0.00
2017-10-03T05:08:24.667Z,0.00
2017-10-03T05:09:24.654Z,0.00
2017-10-03T05:10:24.640Z,0.00
2017-10-03T05:11:24.625Z,0.00
2017-10-03T05:12:24.612Z,0.00
2017-10-03T05:13:24.598Z,0.00
2017-10-03T05:14:24.584Z,0.00
2017-10-03T05:15:24.571Z,0.00
2017-10-03T05:16:24.558Z,0.00
2017-10-03T05:17:24.544Z,0.00
2017-10-03T05:18:24.531Z,0.00
2017-10-03T05:19:24.517Z,0.00
2017-10-03T05:20:24.502Z,0.00
2017-10-03T05:21:24.489Z,0.00
2017-10-03T05:22:24.474Z,0.00
2017-10-03T05:23:24.461Z,5.63
2017-10-03T05:24:24.447Z,5.63
2017-10-03T05:25:24.434Z,5.63
2017-10-03T05:26:24.420Z,5.63
2017-10-03T05:27:24.405Z,5.63
2017-10-03T05:28:24.392Z,5.63
2017-10-03T05:29:24.379Z,0.00
2017-10-03T05:30:24.364Z,5.63
2017-10-03T05:31:24.352Z,5.63
2017-10-03T05:32:24.338Z,11.25
2017-10-03T05:33:24.325Z,11.25
2017-10-03T05:34:24.310Z,16.88
2017-10-03T05:35:24.297Z,16.88
2017-10-03T05:36:24.283Z,11.25
2017-10-03T05:37:24.269Z,11.25
2017-10-03T05:38:24.259Z,11.25
2017-10-03T05:39:24.247Z,16.88
2017-10-03T05:40:24.228Z,22.50
2017-10-03T05:41:24.214Z,16.88
2017-10-03T05:42:24.200Z,16.88
2017-10-03T05:43:24.186Z,11.25
2017-10-03T05:44:24.173Z,16.88
2017-10-03T05:45:24.160Z,22.50
2017-10-03T05:46:24.146Z,22.50
2017-10-03T05:47:24.132Z,16.88
2017-10-03T05:48:24.122Z,16.88
2017-10-03T05:49:24.106Z,16.88
2017-10-03T05:50:24.090Z,16.88
2017-10-03T05:51:24.078Z,22.50
2017-10-03T05:52:24.064Z,33.75
2017-10-03T05:53:24.056Z,39.38
2017-10-03T05:54:24.036Z,33.75
2017-10-03T05:55:24.022Z,28.13
2017-10-03T05:56:24.010Z,28.13
2017-10-03T05:57:23.994Z,28.13
2017-10-03T05:58:23.981Z,33.75
2017-10-03T05:59:23.967Z,28.13
2017-10-03T06:00:23.953Z,22.50
2017-10-03T06:01:23.940Z,28.13
2017-10-03T06:02:23.929Z,22.50
2017-10-03T06:03:23.911Z,16.88
2017-10-03T06:04:23.900Z,22.50
2017-10-03T06:05:23.884Z,22.50
2017-10-03T06:06:23.870Z,16.88
2017-10-03T06:07:23.856Z,22.50
2017-10-03T06:08:23.843Z,22.50
2017-10-03T06:09:23.830Z,33.75
2017-10-03T06:10:23.814Z,28.13
2017-10-03T06:11:23.800Z,39.38
2017-10-03T06:12:23.787Z,39.38
2017-10-03T06:13:23.773Z,33.75
2017-10-03T06:14:23.758Z,28.13
2017-10-03T06:15:23.745Z,33.75
2017-10-03T06:16:23.735Z,28.13
2017-10-03T06:17:23.716Z,33.75
2017-10-03T06:18:23.703Z,28.13
2017-10-03T06:19:23.689Z,22.50
2017-10-03T06:20:23.675Z,28.13
2017-10-03T06:21:23.662Z,33.75
2017-10-03T06:22:23.653Z,50.63
2017-10-03T06:23:23.633Z,45.00
2017-10-03T06:24:23.619Z,45.00
2017-10-03T06:25:23.605Z,50.63
2017-10-03T06:26:23.591Z,61.88
2017-10-03T06:27:23.577Z,61.88
2017-10-03T06:28:23.563Z,50.63
2017-10-03T06:29:23.550Z,56.25
2017-10-03T06:30:23.535Z,39.38
2017-10-03T06:31:23.521Z,39.38
2017-10-03T06:32:23.507Z,39.38
2017-10-03T06:33:23.493Z,39.38
2017-10-03T06:34:23.479Z,39.38
2017-10-03T06:35:23.465Z,50.63
2017-10-03T06:36:23.455Z,45.00
2017-10-03T06:37:23.437Z,33.75
2017-10-03T06:38:23.422Z,45.00
2017-10-03T06:39:23.430Z,45.00
2017-10-03T06:40:23.395Z,45.00
2017-10-03T06:41:23.381Z,45.00
2017-10-03T06:42:23.368Z,45.00
2017-10-03T06:43:23.352Z,39.38
2017-10-03T06:50:06.533Z,28.13
2017-10-03T06:51:06.518Z,22.50
2017-10-03T06:52:06.505Z,22.50
2017-10-03T06:53:06.491Z,22.50
2017-10-03T06:54:06.476Z,28.13
2017-10-03T06:55:06.465Z,33.75
2017-10-03T06:56:06.447Z,33.75
2017-10-03T06:57:06.435Z,50.63
2017-10-03T06:58:06.420Z,56.25
2017-10-03T06:59:06.405Z,67.50
2017-10-03T07:00:06.394Z,73.13
2017-10-03T07:01:06.379Z,73.13
2017-10-03T07:02:06.364Z,73.13
2017-10-03T07:03:06.348Z,84.38
2017-10-03T07:04:06.334Z,78.75
2017-10-03T07:05:06.321Z,84.38
2017-10-03T07:06:06.306Z,78.75
2017-10-03T07:07:06.292Z,101.25
2017-10-03T07:08:06.281Z,106.88
2017-10-03T07:09:06.264Z,118.13
2017-10-03T07:10:06.250Z,118.13
2017-10-03T07:11:06.235Z,112.50
2017-10-03T07:12:06.221Z,118.13
2017-10-03T07:13:06.207Z,112.50
2017-10-03T07:14:06.192Z,129.38
2017-10-03T07:15:06.180Z,101.25
2017-10-03T07:16:06.163Z,112.50
2017-10-03T07:17:06.149Z,106.88
2017-10-03T07:18:06.135Z,123.75
2017-10-03T07:19:06.120Z,106.88
2017-10-03T07:20:06.106Z,95.63
2017-10-03T07:21:06.092Z,106.88
2017-10-03T07:22:06.077Z,112.50
2017-10-03T07:23:06.063Z,118.13
2017-10-03T07:24:06.048Z,106.88
2017-10-03T07:25:06.035Z,123.75
2017-10-03T07:26:06.020Z,129.38
2017-10-03T07:27:06.006Z,146.25
2017-10-03T07:28:05.995Z,163.13
2017-10-03T07:29:05.977Z,174.38
2017-10-03T07:30:05.971Z,157.50
2017-10-03T07:31:05.947Z,191.25
2017-10-03T07:32:05.933Z,208.13
2017-10-03T07:33:05.919Z,174.38
2017-10-03T07:34:05.905Z,151.88
2017-10-03T07:35:05.889Z,140.63
2017-10-03T07:36:05.878Z,157.50
2017-10-03T07:37:05.861Z,157.50
2017-10-03T07:38:05.847Z,202.50
2017-10-03T07:39:05.838Z,213.75
2017-10-03T07:40:05.818Z,168.75
2017-10-03T07:41:05.804Z,174.38
2017-10-03T07:42:05.790Z,157.50
2017-10-03T07:43:05.776Z,140.63
2017-10-03T07:44:05.761Z,151.88
2017-10-03T07:45:05.778Z,157.50
2017-10-03T07:46:05.731Z,146.25
2017-10-03T07:47:05.735Z,157.50
2017-10-03T07:48:05.703Z,157.50
2017-10-03T07:49:05.689Z,146.25
2017-10-03T07:50:05.675Z,123.75
2017-10-03T07:51:05.658Z,129.38
2017-10-03T07:52:05.645Z,129.38
2017-10-03T07:53:05.631Z,129.38
2017-10-03T07:54:05.617Z,140.63
2017-10-03T07:55:05.601Z,118.13
2017-10-03T07:56:05.586Z,135.00
2017-10-03T07:57:05.590Z,123.75
2017-10-03T07:58:05.558Z,140.63
2017-10-03T07:59:05.543Z,157.50
2017-10-03T08:00:05.529Z,146.25
2017-10-03T08:01:05.516Z,135.00
2017-10-03T08:02:05.502Z,101.25
2017-10-03T08:03:05.486Z,73.13
2017-10-03T08:04:05.472Z,67.50
2017-10-03T08:05:05.459Z,73.13
2017-10-03T08:06:05.444Z,78.75
2017-10-03T08:07:05.429Z,101.25
2017-10-03T08:08:05.415Z,112.50
2017-10-03T08:09:05.407Z,129.38
2017-10-03T08:10:05.387Z,146.25
2017-10-03T08:11:05.372Z,157.50
2017-10-03T08:12:05.357Z,174.38
2017-10-03T08:13:05.345Z,191.25
2017-10-03T08:14:05.330Z,208.13
2017-10-03T08:15:05.315Z,230.63
2017-10-03T08:16:05.301Z,241.88
2017-10-03T08:17:05.287Z,258.75
2017-10-03T08:18:05.273Z,236.25
2017-10-03T08:19:05.258Z,230.63
2017-10-03T08:20:05.243Z,213.75
2017-10-03T08:21:05.228Z,191.25
2017-10-03T08:22:05.214Z,185.63
2017-10-03T08:23:05.198Z,174.38
2017-10-03T08:24:05.184Z,174.38
2017-10-03T08:25:05.168Z,174.38
2017-10-03T08:26:05.153Z,174.38
2017-10-03T08:27:05.137Z,168.75
2017-10-03T08:28:05.126Z,168.75
2017-10-03T08:29:05.106Z,174.38
2017-10-03T08:30:05.091Z,185.63
2017-10-03T08:31:05.077Z,191.25
2017-10-03T08:32:05.061Z,202.50
2017-10-03T08:33:05.043Z,219.38
2017-10-03T08:34:05.028Z,236.25
2017-10-03T08:35:05.015Z,236.25
2017-10-03T08:36:04.996Z,241.88
2017-10-03T08:37:04.979Z,230.63
2017-10-03T08:38:04.964Z,219.38
2017-10-03T08:39:04.947Z,213.75
2017-10-03T08:40:04.931Z,208.13
2017-10-03T08:41:04.915Z,191.25
2017-10-03T08:42:04.899Z,196.88
2017-10-03T08:43:04.882Z,202.50
2017-10-03T08:44:04.869Z,202.50
2017-10-03T08:45:04.850Z,208.13
2017-10-03T08:46:04.845Z,202.50
2017-10-03T08:47:04.817Z,208.13
2017-10-03T08:48:04.801Z,241.88
2017-10-03T08:49:04.784Z,253.13
2017-10-03T08:50:06.296Z,275.63
2017-10-03T08:51:04.751Z,298.13
